createdAt,value
2023-04-22T00:02:16.910Z,100339.91
2023-04-22T00:04:46.456Z,100346.09
2023-04-22T00:07:14.650Z,100345.28
2023-04-22T00:09:41.847Z,100340.94
2023-04-22T00:12:08.683Z,100340.00
2023-04-22T00:14:35.625Z,100341.87
2023-04-22T00:17:02.267Z,100332.16
2023-04-22T00:19:29.223Z,100340.12
2023-04-22T00:21:56.115Z,100338.41
2023-04-22T00:24:22.799Z,100346.34
2023-04-22T00:26:49.436Z,100342.00
2023-04-22T00:29:16.108Z,100343.88
2023-04-22T00:31:42.861Z,100348.25
2023-04-22T00:34:09.539Z,100344.78
2023-04-22T00:36:36.150Z,100344.78
2023-04-22T00:39:02.729Z,100340.38
2023-04-22T00:41:31.100Z,100336.88
2023-04-22T00:43:57.857Z,100335.09
2023-04-22T00:46:24.549Z,100333.38
2023-04-22T00:48:51.137Z,100335.16
2023-04-22T00:51:17.852Z,100336.97
2023-04-22T00:53:44.473Z,100330.81
2023-04-22T00:56:12.042Z,100344.06
2023-04-22T00:58:38.654Z,100334.34
2023-04-22T01:01:05.681Z,100339.75
2023-04-22T01:03:35.717Z,100343.25
2023-04-22T01:06:02.719Z,100343.25
2023-04-22T01:08:30.260Z,100349.47
2023-04-22T01:10:57.653Z,100355.72
2023-04-22T01:13:24.464Z,100357.50
2023-04-22T01:15:51.758Z,100346.91
2023-04-22T01:18:18.363Z,100358.41
2023-04-22T01:20:45.555Z,100357.56
2023-04-22T01:23:19.123Z,100350.53
2023-04-22T01:25:47.569Z,100355.00
2023-04-22T01:28:14.526Z,100355.00
2023-04-22T01:30:43.985Z,100355.00
2023-04-22T01:33:10.839Z,100361.22
2023-04-22T01:35:38.009Z,100354.22
2023-04-22T01:38:05.487Z,100361.31
2023-04-22T01:40:32.403Z,100360.41
2023-04-22T01:43:02.640Z,100362.28
2023-04-22T01:45:29.893Z,100364.00
2023-04-22T01:47:56.537Z,100360.56
2023-04-22T01:50:23.270Z,100364.94
2023-04-22T01:52:49.924Z,100358.84
2023-04-22T01:55:18.830Z,100353.56
2023-04-22T01:57:45.515Z,100361.50
2023-04-22T02:00:12.524Z,100358.84
2023-04-22T02:02:39.230Z,100357.12
2023-04-22T02:05:07.564Z,100360.69
2023-04-22T02:07:34.495Z,100367.78
2023-04-22T02:10:02.224Z,100355.47
2023-04-22T02:12:28.854Z,100359.00
2023-04-22T02:14:55.503Z,100351.97
2023-04-22T02:17:22.351Z,100358.19
2023-04-22T02:19:49.127Z,100355.53
2023-04-22T02:22:15.798Z,100358.25
2023-04-22T02:24:43.106Z,100360.06
2023-04-22T02:27:09.802Z,100346.81
2023-04-22T02:29:36.463Z,100356.53
2023-04-22T02:32:03.089Z,100354.84
2023-04-22T02:34:29.669Z,100351.31
2023-04-22T02:36:56.364Z,100348.69
2023-04-22T02:39:23.028Z,100356.66
2023-04-22T02:41:49.622Z,100355.81
2023-04-22T02:44:16.254Z,100358.47
2023-04-22T02:46:43.038Z,100352.31
2023-04-22T02:49:09.852Z,100349.75
2023-04-22T02:51:38.094Z,100347.09
2023-04-22T02:54:04.985Z,100353.31
2023-04-22T02:56:31.875Z,100346.28
2023-04-22T02:58:58.458Z,100348.06
2023-04-22T03:01:25.190Z,100354.31
2023-04-22T03:03:52.117Z,100352.50
2023-04-22T03:06:18.897Z,100355.16
2023-04-22T03:08:47.615Z,100351.66
2023-04-22T03:11:14.413Z,100353.44
2023-04-22T03:13:41.021Z,100349.09
2023-04-22T03:16:07.793Z,100348.28
2023-04-22T03:18:34.421Z,100346.47
2023-04-22T03:21:01.052Z,100350.94
2023-04-22T03:23:27.691Z,100355.37
2023-04-22T03:25:54.319Z,100348.34
2023-04-22T03:28:20.961Z,100354.50
2023-04-22T03:30:48.509Z,100359.81
2023-04-22T03:33:15.256Z,100357.22
2023-04-22T03:35:41.949Z,100359.94
2023-04-22T03:38:08.591Z,100367.88
2023-04-22T03:40:35.170Z,100362.56
2023-04-22T03:43:03.571Z,100367.00
2023-04-22T03:45:30.315Z,100366.16
2023-04-22T03:47:57.058Z,100371.53
2023-04-22T03:50:23.858Z,100371.53
2023-04-22T03:52:50.454Z,100364.53
2023-04-22T03:55:17.081Z,100360.13
2023-04-22T03:57:43.727Z,100373.31
2023-04-22T04:00:10.788Z,100369.81
2023-04-22T04:02:37.689Z,100368.97
2023-04-22T04:05:05.164Z,100375.16
2023-04-22T04:07:32.171Z,100372.50
2023-04-22T04:09:58.752Z,100369.88
2023-04-22T04:12:25.390Z,100376.09
2023-04-22T04:14:52.001Z,100375.25
2023-04-22T04:17:18.632Z,100378.75
2023-04-22T04:19:45.415Z,100378.81
2023-04-22T04:22:12.047Z,100377.03
2023-04-22T04:24:42.212Z,100384.97
2023-04-22T04:27:09.160Z,100385.91
2023-04-22T04:29:35.926Z,100386.75
2023-04-22T04:32:03.310Z,100392.91
2023-04-22T04:34:32.367Z,100394.72
2023-04-22T04:36:58.962Z,100391.19
2023-04-22T04:39:26.500Z,100397.41
2023-04-22T04:41:55.343Z,100397.41
2023-04-22T04:44:22.153Z,100396.53
2023-04-22T04:46:48.814Z,100400.97
2023-04-22T04:49:15.605Z,100411.56
2023-04-22T04:51:42.321Z,100400.06
2023-04-22T04:54:08.898Z,100400.06
2023-04-22T04:56:35.512Z,100404.50
2023-04-22T04:59:02.133Z,100410.63
2023-04-22T05:01:28.839Z,100413.03
2023-04-22T05:03:55.746Z,100410.66
2023-04-22T05:06:22.545Z,100401.09
2023-04-22T05:08:49.190Z,100411.16
2023-04-22T05:11:15.944Z,100414.19
2023-04-22T05:13:42.601Z,100410.94
2023-04-22T05:16:09.238Z,100415.59
2023-04-22T05:18:35.889Z,100408.62
2023-04-22T05:21:04.288Z,100411.22
2023-04-22T05:23:31.018Z,100406.81
2023-04-22T05:25:58.372Z,100414.09
2023-04-22T05:28:25.153Z,100412.56
2023-04-22T05:30:51.795Z,100403.37
2023-04-22T05:33:18.490Z,100407.41
2023-04-22T05:35:45.353Z,100405.38
2023-04-22T05:38:12.025Z,100409.59
2023-04-22T05:40:40.820Z,100404.19
2023-04-22T05:43:08.552Z,100403.19
2023-04-22T05:45:35.221Z,100412.88
2023-04-22T05:48:01.950Z,100407.41
2023-04-22T05:50:28.575Z,100409.22
2023-04-22T05:52:55.241Z,100423.25
2023-04-22T05:55:22.001Z,100419.66
2023-04-22T05:57:48.660Z,100417.00
2023-04-22T06:00:15.964Z,100417.88
2023-04-22T06:02:42.763Z,100422.19
2023-04-22T06:05:09.994Z,100427.50
2023-04-22T06:07:36.782Z,100422.94
2023-04-22T06:10:05.360Z,100428.22
2023-04-22T06:12:33.579Z,100428.91
2023-04-22T06:15:00.770Z,100420.88
2023-04-22T06:17:27.587Z,100432.22
2023-04-22T06:19:54.842Z,100425.00
2023-04-22T06:22:21.717Z,100437.28
2023-04-22T06:24:48.443Z,100424.78
2023-04-22T06:27:15.104Z,100436.16
2023-04-22T06:29:41.860Z,100436.13
2023-04-22T06:32:08.587Z,100436.97
2023-04-22T06:34:35.340Z,100432.41
2023-04-22T06:37:01.948Z,100436.72
2023-04-22T06:39:28.583Z,100435.78
2023-04-22T06:41:55.402Z,100428.66
2023-04-22T06:44:22.323Z,100431.22
2023-04-22T06:46:49.087Z,100424.16
2023-04-22T06:49:15.959Z,100427.66
2023-04-22T06:51:42.545Z,100426.72
2023-04-22T06:54:09.366Z,100423.19
2023-04-22T06:56:38.234Z,100430.22
2023-04-22T06:59:04.938Z,100423.09
2023-04-22T07:01:31.575Z,100419.50
2023-04-22T07:03:58.273Z,100422.16
2023-04-22T07:06:25.078Z,100420.34
2023-04-22T07:08:51.635Z,100422.09
2023-04-22T07:11:18.307Z,100419.44
2023-04-22T07:13:44.940Z,100424.75
2023-04-22T07:16:11.579Z,100426.53
2023-04-22T07:18:39.908Z,100422.16
2023-04-22T07:21:06.901Z,100424.81
2023-04-22T07:23:33.501Z,100424.91
2023-04-22T07:26:02.301Z,100431.16
2023-04-22T07:28:28.930Z,100432.97
2023-04-22T07:30:55.600Z,100431.22
2023-04-22T07:33:22.281Z,100434.84
2023-04-22T07:35:49.052Z,100430.37
2023-04-22T07:38:15.703Z,100433.97
2023-04-22T07:40:42.861Z,100434.84
2023-04-22T07:43:09.550Z,100432.19
2023-04-22T07:45:36.210Z,100428.66
2023-04-22T07:48:03.255Z,100427.72
2023-04-22T07:50:29.845Z,100433.03
2023-04-22T07:52:56.630Z,100435.69
2023-04-22T07:55:23.264Z,100432.12
2023-04-22T07:57:49.889Z,100427.66
2023-04-22T08:00:17.126Z,100434.78
2023-04-22T08:02:44.110Z,100432.97
2023-04-22T08:05:11.619Z,100430.31
2023-04-22T08:07:38.355Z,100428.50
2023-04-22T08:10:05.803Z,100429.47
2023-04-22T08:12:32.382Z,100423.34
2023-04-22T08:14:59.039Z,100432.12
2023-04-22T08:17:25.984Z,100417.09
2023-04-22T08:19:52.592Z,100421.50
2023-04-22T08:22:19.292Z,100424.16
2023-04-22T08:24:45.966Z,100430.37
2023-04-22T08:27:12.602Z,100426.81
2023-04-22T08:29:39.407Z,100423.25
2023-04-22T08:32:08.803Z,100428.56
2023-04-22T08:34:36.689Z,100426.87
2023-04-22T08:37:03.797Z,100425.91
2023-04-22T08:39:30.544Z,100427.81
2023-04-22T08:41:58.459Z,100425.16
2023-04-22T08:44:25.106Z,100426.09
2023-04-22T08:46:51.899Z,100426.94
2023-04-22T08:49:19.085Z,100425.25
2023-04-22T08:51:46.122Z,100425.25
2023-04-22T08:54:12.764Z,100419.97
2023-04-22T08:56:46.541Z,100420.94
2023-04-22T08:59:13.445Z,100418.28
2023-04-22T09:01:41.079Z,100417.41
2023-04-22T09:04:08.598Z,100419.22
2023-04-22T09:06:35.233Z,100409.44
2023-04-22T09:09:04.105Z,100417.41
2023-04-22T09:11:31.235Z,100406.03
2023-04-22T09:13:57.956Z,100415.72
2023-04-22T09:16:24.587Z,100414.84
2023-04-22T09:18:51.315Z,100413.06
2023-04-22T09:21:17.931Z,100412.19
2023-04-22T09:23:48.797Z,100415.75
2023-04-22T09:26:18.221Z,100427.28
2023-04-22T09:28:52.375Z,100416.72
2023-04-22T09:31:19.057Z,100412.34
2023-04-22T09:33:50.356Z,100417.66
2023-04-22T09:36:17.084Z,100410.53
2023-04-22T09:38:59.756Z,100414.16
2023-04-22T09:41:30.533Z,100406.16
2023-04-22T09:44:00.418Z,100415.09
2023-04-22T09:46:27.858Z,100403.59
2023-04-22T09:48:58.959Z,100403.59
2023-04-22T09:51:25.844Z,100402.75
2023-04-22T09:54:06.517Z,100399.22
2023-04-22T09:56:52.137Z,100390.38
2023-04-22T09:59:28.784Z,100385.91
2023-04-22T10:01:57.470Z,100388.56
2023-04-22T10:04:25.611Z,100377.19
2023-04-22T10:06:53.137Z,100378.12
2023-04-22T10:09:23.849Z,100386.09
2023-04-22T10:11:52.499Z,100373.75
2023-04-22T10:14:19.133Z,100379.94
2023-04-22T10:16:46.829Z,100374.62
2023-04-22T10:19:21.683Z,100367.50
2023-04-22T10:21:49.641Z,100371.97
2023-04-22T10:24:17.974Z,100375.53
2023-04-22T10:27:08.506Z,100365.84
2023-04-22T10:29:36.932Z,100358.81
2023-04-22T10:32:10.892Z,100363.38
2023-04-22T10:34:39.070Z,100365.22
2023-04-22T10:37:11.480Z,100360.00
2023-04-22T10:39:39.741Z,100367.97
2023-04-22T10:42:10.364Z,100353.00
2023-04-22T10:44:53.864Z,100349.44
2023-04-22T10:47:27.307Z,100345.87
2023-04-22T10:50:24.080Z,100348.53
2023-04-22T10:53:00.375Z,100346.78
2023-04-22T10:55:48.537Z,100346.78
2023-04-22T10:58:22.703Z,100339.72
2023-04-22T11:00:54.558Z,100341.63
2023-04-22T11:03:29.199Z,100346.13
2023-04-22T11:06:16.216Z,100339.22
2023-04-22T11:08:47.267Z,100341.06
2023-04-22T11:11:14.286Z,100345.53
2023-04-22T11:13:42.217Z,100340.41
2023-04-22T11:16:09.032Z,100343.97
2023-04-22T11:18:38.733Z,100338.75
2023-04-22T11:21:09.497Z,100343.19
2023-04-22T11:23:38.896Z,100348.59
2023-04-22T11:26:06.139Z,100342.44
2023-04-22T11:28:33.053Z,100333.59
2023-04-22T11:31:07.093Z,100331.97
2023-04-22T11:33:34.542Z,100339.94
2023-04-22T11:36:01.373Z,100335.56
2023-04-22T11:38:28.060Z,100342.66
2023-04-22T11:40:55.419Z,100331.25
2023-04-22T11:43:22.002Z,100331.25
2023-04-22T11:45:48.608Z,100331.34
2023-04-22T11:48:16.661Z,100334.94
2023-04-22T11:50:48.012Z,100335.84
2023-04-22T11:53:23.899Z,100337.66
2023-04-22T11:55:51.251Z,100333.28
2023-04-22T11:58:25.340Z,100339.53
2023-04-22T12:00:52.469Z,100332.44
2023-04-22T12:03:24.380Z,100337.75
2023-04-22T12:05:54.969Z,100333.38
2023-04-22T12:08:22.382Z,100331.66
2023-04-22T12:10:50.815Z,100334.38
2023-04-22T12:13:30.655Z,100331.72
2023-04-22T12:16:01.681Z,100327.34
2023-04-22T12:18:31.914Z,100325.56
2023-04-22T12:21:04.648Z,100324.78
2023-04-22T12:23:32.056Z,100328.31
2023-04-22T12:25:58.648Z,100320.44
2023-04-22T12:28:25.593Z,100319.53
2023-04-22T12:30:52.194Z,100317.84
2023-04-22T12:33:18.825Z,100312.53
2023-04-22T12:35:47.100Z,100318.69
2023-04-22T12:38:13.851Z,100314.31
2023-04-22T12:40:40.452Z,100309.00
2023-04-22T12:43:07.354Z,100315.25
2023-04-22T12:45:33.977Z,100303.78
2023-04-22T12:48:01.056Z,100312.69
2023-04-22T12:50:27.702Z,100307.38
2023-04-22T12:53:03.277Z,100302.06
2023-04-22T12:55:29.883Z,100294.16
2023-04-22T12:57:56.939Z,100295.97
2023-04-22T13:00:24.395Z,100295.13
2023-04-22T13:02:51.255Z,100292.47
2023-04-22T13:05:18.738Z,100290.75
2023-04-22T13:07:50.631Z,100288.09
2023-04-22T13:10:23.031Z,100290.75
2023-04-22T13:12:49.857Z,100277.56
2023-04-22T13:15:19.256Z,100280.13
2023-04-22T13:17:47.523Z,100279.34
2023-04-22T13:20:16.364Z,100279.34
2023-04-22T13:22:43.361Z,100274.97
2023-04-22T13:25:10.066Z,100282.94
2023-04-22T13:27:36.770Z,100281.22
2023-04-22T13:30:04.703Z,100277.72
2023-04-22T13:32:31.337Z,100272.41
2023-04-22T13:34:57.997Z,100283.12
2023-04-22T13:37:24.626Z,100274.22
2023-04-22T13:39:51.311Z,100269.84
2023-04-22T13:42:17.933Z,100264.59
2023-04-22T13:44:44.608Z,100273.41
2023-04-22T13:47:11.380Z,100270.75
2023-04-22T13:49:38.333Z,100267.25
2023-04-22T13:52:05.044Z,100269.03
2023-04-22T13:54:31.680Z,100266.38
2023-04-22T13:56:58.299Z,100265.62
2023-04-22T13:59:24.891Z,100261.16
2023-04-22T14:01:51.516Z,100257.66
2023-04-22T14:04:18.202Z,100258.50
2023-04-22T14:06:44.828Z,100262.12
2023-04-22T14:09:11.582Z,100259.53
2023-04-22T14:11:38.187Z,100256.88
2023-04-22T14:14:04.777Z,100266.63
2023-04-22T14:16:32.088Z,100266.63
2023-04-22T14:18:58.766Z,100262.25
2023-04-22T14:21:27.419Z,100257.03
2023-04-22T14:23:54.721Z,100254.37
2023-04-22T14:26:21.392Z,100260.59
2023-04-22T14:28:47.985Z,100260.59
2023-04-22T14:31:15.265Z,100264.22
2023-04-22T14:33:42.810Z,100260.59
2023-04-22T14:36:09.445Z,100262.41
2023-04-22T14:38:36.182Z,100259.00
2023-04-22T14:41:03.755Z,100255.38
2023-04-22T14:43:33.389Z,100246.56
2023-04-22T14:46:00.604Z,100249.22
2023-04-22T14:48:30.803Z,100255.47
2023-04-22T14:50:57.958Z,100249.31
2023-04-22T14:53:24.553Z,100251.13
2023-04-22T14:55:51.214Z,100251.13
2023-04-22T14:58:18.108Z,100245.81
2023-04-22T15:00:44.696Z,100250.22
2023-04-22T15:03:11.439Z,100254.69
2023-04-22T15:05:38.160Z,100244.06
2023-04-22T15:08:04.844Z,100246.72
2023-04-22T15:10:31.488Z,100248.53
2023-04-22T15:12:58.071Z,100245.00
2023-04-22T15:15:24.675Z,100250.31
2023-04-22T15:17:51.344Z,100245.94
2023-04-22T15:20:18.225Z,100250.41
2023-04-22T15:22:44.978Z,100250.41
2023-04-22T15:25:14.041Z,100259.38
2023-04-22T15:27:41.241Z,100246.09
2023-04-22T15:30:08.174Z,100243.44
2023-04-22T15:32:34.980Z,100246.97
2023-04-22T15:35:01.686Z,100239.94
2023-04-22T15:37:28.352Z,100247.03
2023-04-22T15:39:54.965Z,100246.19
2023-04-22T15:42:24.369Z,100240.87
2023-04-22T15:44:51.066Z,100245.34
2023-04-22T15:47:18.045Z,100240.03
2023-04-22T15:49:44.720Z,100245.34
2023-04-22T15:52:11.468Z,100247.13
2023-04-22T15:54:38.057Z,100249.84
2023-04-22T15:57:04.650Z,100241.88
2023-04-22T15:59:31.237Z,100249.00
2023-04-22T16:01:57.912Z,100246.34
2023-04-22T16:04:24.982Z,100248.09
2023-04-22T16:06:51.791Z,100243.69
2023-04-22T16:09:19.335Z,100242.78
2023-04-22T16:11:45.963Z,100249.03
2023-04-22T16:14:12.549Z,100236.72
2023-04-22T16:16:39.673Z,100239.38
2023-04-22T16:19:06.333Z,100239.38
2023-04-22T16:21:32.929Z,100235.91
2023-04-22T16:24:00.591Z,100239.53
2023-04-22T16:26:27.353Z,100233.22
2023-04-22T16:28:55.011Z,100229.75
2023-04-22T16:31:23.131Z,100226.25
2023-04-22T16:33:51.007Z,100223.59
2023-04-22T16:36:17.596Z,100221.88
2023-04-22T16:38:44.353Z,100229.84
2023-04-22T16:41:11.944Z,100226.34
2023-04-22T16:43:40.877Z,100231.56
2023-04-22T16:46:07.985Z,100234.31
2023-04-22T16:48:34.601Z,100232.59
2023-04-22T16:51:01.296Z,100222.84
2023-04-22T16:53:31.431Z,100223.75
2023-04-22T16:55:58.105Z,100222.84
2023-04-22T16:58:24.768Z,100221.09
2023-04-22T17:00:51.426Z,100222.88
2023-04-22T17:03:18.120Z,100221.19
2023-04-22T17:05:44.852Z,100230.84
2023-04-22T17:08:11.493Z,100225.62
2023-04-22T17:10:41.508Z,100230.94
2023-04-22T17:13:08.345Z,100227.53
2023-04-22T17:15:35.163Z,100232.75
2023-04-22T17:18:02.737Z,100223.06
2023-04-22T17:20:29.408Z,100221.31
2023-04-22T17:22:56.003Z,100226.63
2023-04-22T17:25:22.592Z,100227.53
2023-04-22T17:27:49.229Z,100220.56
2023-04-22T17:30:16.196Z,100224.91
2023-04-22T17:32:42.790Z,100218.84
2023-04-22T17:35:09.912Z,100220.56
2023-04-22T17:37:36.642Z,100227.66
2023-04-22T17:40:04.776Z,100227.66
2023-04-22T17:42:44.766Z,100227.66
2023-04-22T17:45:12.391Z,100232.12
2023-04-22T17:47:39.117Z,100230.41
2023-04-22T17:50:06.524Z,100235.72
2023-04-22T17:52:33.166Z,100234.84
2023-04-22T17:55:00.192Z,100239.28
2023-04-22T17:57:28.368Z,100240.16
2023-04-22T17:59:55.122Z,100239.28
2023-04-22T18:02:22.404Z,100238.41
2023-04-22T18:04:49.646Z,100246.38
2023-04-22T18:07:16.462Z,100259.62
2023-04-22T18:09:43.778Z,100260.56
2023-04-22T18:12:10.656Z,100260.56
2023-04-22T18:14:37.446Z,100263.22
2023-04-22T18:17:04.292Z,100260.66
2023-04-22T18:19:31.195Z,100267.69
2023-04-22T18:22:00.312Z,100273.00
2023-04-22T18:24:27.621Z,100271.28
2023-04-22T18:26:54.295Z,100272.22
2023-04-22T18:29:21.191Z,100273.06
2023-04-22T18:31:47.877Z,100277.56
2023-04-22T18:34:15.988Z,100284.59
2023-04-22T18:36:42.688Z,100282.03
2023-04-22T18:39:09.938Z,100284.59
2023-04-22T18:41:38.629Z,100288.19
2023-04-22T18:44:05.273Z,100287.34
2023-04-22T18:46:32.004Z,100291.69
2023-04-22T18:48:58.639Z,100283.75
2023-04-22T18:51:25.644Z,100293.50
2023-04-22T18:53:52.434Z,100296.22
2023-04-22T18:56:19.058Z,100295.28
2023-04-22T18:58:45.925Z,100291.78
2023-04-22T19:01:12.657Z,100297.09
2023-04-22T19:03:39.735Z,100290.94
2023-04-22T19:06:06.921Z,100300.69
2023-04-22T19:08:33.947Z,100294.53
2023-04-22T19:11:00.782Z,100295.38
2023-04-22T19:13:30.072Z,100286.56
2023-04-22T19:16:00.498Z,100287.47
2023-04-22T19:18:27.248Z,100294.56
2023-04-22T19:20:53.977Z,100286.62
2023-04-22T19:23:20.710Z,100291.91
2023-04-22T19:25:48.043Z,100299.09
2023-04-22T19:28:14.661Z,100298.16
2023-04-22T19:30:41.348Z,100298.16
2023-04-22T19:33:08.198Z,100299.09
2023-04-22T19:35:34.901Z,100296.47
2023-04-22T19:38:01.626Z,100299.09
2023-04-22T19:40:28.394Z,100292.09
2023-04-22T19:42:55.100Z,100299.09
2023-04-22T19:45:21.739Z,100295.69
2023-04-22T19:47:48.697Z,100293.03
2023-04-22T19:50:16.693Z,100293.03
2023-04-22T19:52:43.315Z,100295.69
2023-04-22T19:55:10.162Z,100299.25
2023-04-22T19:57:37.030Z,100293.94
2023-04-22T20:00:07.679Z,100290.44
2023-04-22T20:02:35.335Z,100291.28
2023-04-22T20:05:05.552Z,100297.44
2023-04-22T20:07:35.570Z,100296.69
2023-04-22T20:10:06.866Z,100299.25
2023-04-22T20:12:33.938Z,100305.50
2023-04-22T20:15:06.136Z,100303.78
2023-04-22T20:17:35.882Z,100307.28
2023-04-22T20:20:06.714Z,100300.28
2023-04-22T20:22:33.611Z,100296.75
2023-04-22T20:25:04.863Z,100297.66
2023-04-22T20:27:31.833Z,100301.13
2023-04-22T20:29:59.015Z,100301.22
2023-04-22T20:32:26.313Z,100298.56
2023-04-22T20:34:53.731Z,100302.06
2023-04-22T20:37:20.786Z,100299.41
2023-04-22T20:39:50.039Z,100298.56
2023-04-22T20:42:17.485Z,100296.75
2023-04-22T20:44:45.251Z,100294.13
2023-04-22T20:47:12.044Z,100289.72
2023-04-22T20:49:42.962Z,100292.38
2023-04-22T20:52:09.992Z,100288.88
2023-04-22T20:54:36.833Z,100284.41
2023-04-22T20:57:05.113Z,100292.38
2023-04-22T20:59:32.475Z,100296.81
2023-04-22T21:01:59.300Z,100289.81
2023-04-22T21:04:26.454Z,100288.09
2023-04-22T21:06:56.790Z,100291.59
2023-04-22T21:09:26.327Z,100296.91
2023-04-22T21:11:53.284Z,100298.69
2023-04-22T21:14:22.227Z,100291.59
2023-04-22T21:17:25.550Z,100297.75
2023-04-22T21:19:52.217Z,100297.84
2023-04-22T21:22:20.944Z,100290.81
2023-04-22T21:24:56.394Z,100293.53
2023-04-22T21:27:23.271Z,100289.94
2023-04-22T21:29:50.342Z,100301.50
2023-04-22T21:32:17.429Z,100293.53
2023-04-22T21:34:44.954Z,100292.69
2023-04-22T21:37:12.002Z,100296.28
2023-04-22T21:39:38.647Z,100295.41
2023-04-22T21:42:08.885Z,100304.31
2023-04-22T21:44:36.530Z,100304.31
2023-04-22T21:47:03.868Z,100298.16
2023-04-22T21:49:30.568Z,100302.56
2023-04-22T21:51:57.210Z,100306.16
2023-04-22T21:54:23.892Z,100307.00
2023-04-22T21:56:50.935Z,100307.00
2023-04-22T21:59:17.635Z,100306.25
2023-04-22T22:01:44.380Z,100303.50
2023-04-22T22:04:14.615Z,100303.59
2023-04-22T22:06:42.324Z,100312.41
2023-04-22T22:09:09.076Z,100307.19
2023-04-22T22:11:36.093Z,100308.03
2023-04-22T22:14:02.809Z,100311.63
2023-04-22T22:16:29.694Z,100313.38
2023-04-22T22:18:57.853Z,100313.38
2023-04-22T22:21:24.669Z,100314.34
2023-04-22T22:23:51.843Z,100314.34
2023-04-22T22:26:18.626Z,100314.34
2023-04-22T22:28:45.314Z,100317.91
2023-04-22T22:31:12.019Z,100317.91
2023-04-22T22:33:38.595Z,100319.72
2023-04-22T22:36:05.265Z,100317.06
2023-04-22T22:38:32.035Z,100318.84
2023-04-22T22:40:58.772Z,100322.44
2023-04-22T22:43:25.652Z,100320.72
2023-04-22T22:45:52.478Z,100315.41
2023-04-22T22:48:19.506Z,100313.69
2023-04-22T22:50:49.079Z,100319.00
2023-04-22T22:53:15.979Z,100318.13
2023-04-22T22:55:42.626Z,100315.50
2023-04-22T22:58:09.261Z,100320.78
2023-04-22T23:00:36.185Z,100327.03
2023-04-22T23:03:03.367Z,100321.72
2023-04-22T23:05:30.617Z,100336.78
2023-04-22T23:07:57.311Z,100324.44
2023-04-22T23:10:23.945Z,100324.44
2023-04-22T23:12:50.646Z,100321.78
2023-04-22T23:15:17.353Z,100329.81
2023-04-22T23:17:44.148Z,100323.66
2023-04-22T23:20:11.645Z,100328.97
2023-04-22T23:22:39.569Z,100329.03
2023-04-22T23:25:07.505Z,100322.81
2023-04-22T23:27:34.453Z,100328.09
2023-04-22T23:30:01.272Z,100330.84
2023-04-22T23:34:58.928Z,100334.38
2023-04-22T23:37:25.978Z,100329.09
2023-04-22T23:39:52.609Z,100327.38
2023-04-22T23:42:21.605Z,100325.59
2023-04-22T23:44:48.195Z,100329.19
2023-04-22T23:47:15.092Z,100335.41
2023-04-22T23:49:41.752Z,100323.94
2023-04-22T23:52:08.381Z,100324.91
2023-04-22T23:54:35.414Z,100331.09
2023-04-22T23:57:03.261Z,100325.81
2023-04-22T23:59:30.341Z,100331.09
